Time;durP1;ratioP1;P1;durP2;ratioP2;P2;SDS_P1;SDS_P2;PMS_P1;PMS_P2;Temp;Humidity;BMP_temperature;BMP_pressure;BME280_temperature;BME280_humidity;BME280_pressure;Samples;Min_cycle;Max_cycle;Signal;HPM_P1;HPM_P2
2023/10/09 00:01:46;;;;;;;6.80;2.50;;;13.70;1.00;;;;;;5032264;28;20060;-78
2023/10/09 00:04:13;;;;;;;5.20;2.90;;;13.60;1.00;;;;;;5027874;28;20543;-78
2023/10/09 00:06:43;;;;;;;6.72;2.72;;;13.50;1.00;;;;;;5044704;28;20033;-78
2023/10/09 00:11:56;;;;;;;8.80;3.53;;;13.40;56.90;;;;;;5040222;28;20044;-78
2023/10/09 00:14:30;;;;;;;8.25;3.40;;;13.30;99.90;;;;;;5045134;28;20067;-77
2023/10/09 00:17:03;;;;;;;11.18;3.58;;;13.30;99.90;;;;;;5043872;28;20040;-78
2023/10/09 00:19:33;;;;;;;6.50;3.00;;;13.20;99.90;;;;;;5036091;28;20048;-78
2023/10/09 00:22:04;;;;;;;9.15;3.22;;;13.20;99.90;;;;;;5038294;28;20049;-77
2023/10/09 00:24:32;;;;;;;6.93;3.10;;;13.20;99.90;;;;;;5041717;28;20389;-78
2023/10/09 00:27:18;;;;;;;13.32;3.92;;;13.20;99.90;;;;;;5032008;28;20091;-78
2023/10/09 00:29:48;;;;;;;9.02;3.65;;;13.20;99.90;;;;;;5037281;28;20041;-78
2023/10/09 00:32:16;;;;;;;9.60;4.15;;;13.10;99.90;;;;;;5036277;28;20047;-77
2023/10/09 00:34:42;;;;;;;13.30;4.20;;;13.20;99.90;;;;;;5031828;28;20084;-77
2023/10/09 00:37:34;;;;;;;11.25;4.22;;;13.20;99.90;;;;;;5038660;28;20051;-78
2023/10/09 00:39:57;;;;;;;11.88;4.60;;;13.20;99.90;;;;;;5041011;28;20128;-77
2023/10/09 00:42:36;;;;;;;12.65;4.75;;;13.20;99.90;;;;;;5027792;28;20128;-77
2023/10/09 00:45:08;;;;;;;11.50;4.80;;;13.20;99.90;;;;;;5035097;28;20411;-78
2023/10/09 00:47:35;;;;;;;10.82;4.43;;;13.30;99.90;;;;;;5033431;28;20120;-78
2023/10/09 00:50:11;;;;;;;11.80;5.22;;;13.30;99.90;;;;;;5034110;28;20040;-77
2023/10/09 00:52:44;;;;;;;11.88;4.70;;;13.30;99.90;;;;;;5016320;28;20160;-77
2023/10/09 00:55:14;;;;;;;11.23;5.68;;;13.40;99.90;;;;;;5018062;28;20033;-77
2023/10/09 00:57:50;;;;;;;13.63;5.25;;;13.40;99.90;;;;;;5029588;28;20033;-77
2023/10/09 01:00:32;;;;;;;13.43;5.18;;;13.40;99.90;;;;;;5036610;28;20688;-78
2023/10/09 01:05:57;;;;;;;14.43;4.97;;;13.40;99.90;;;;;;5036698;28;20040;-78
2023/10/09 01:08:55;;;;;;;11.93;5.28;;;13.40;99.90;;;;;;5041957;28;20060;-78
2023/10/09 01:11:10;;;;;;;14.25;5.63;;;13.40;99.90;;;;;;5052034;28;20523;-78
2023/10/09 01:16:18;;;;;;;12.73;6.45;;;13.50;99.90;;;;;;5039155;28;20052;-78
2023/10/09 01:18:46;;;;;;;20.15;7.10;;;13.50;99.90;;;;;;5027360;28;20040;-78
2023/10/09 01:21:13;;;;;;;19.73;6.85;;;13.50;99.90;;;;;;5058566;28;20053;-77
2023/10/09 01:23:52;;;;;;;24.48;7.80;;;13.40;99.90;;;;;;5038392;28;20538;-78
2023/10/09 01:26:18;;;;;;;17.15;7.68;;;13.50;99.90;;;;;;5022147;28;20086;-78
2023/10/09 01:28:44;;;;;;;17.00;8.23;;;13.50;99.90;;;;;;5046534;28;20072;-78
2023/10/09 01:31:10;;;;;;;17.83;8.07;;;13.50;1.00;;;;;;5038242;28;20444;-77
2023/10/09 01:33:36;;;;;;;17.20;8.35;;;13.50;1.00;;;;;;5023342;28;20073;-78
2023/10/09 01:36:02;;;;;;;20.73;8.98;;;13.60;1.00;;;;;;5047197;28;20122;-77
2023/10/09 01:38:41;;;;;;;23.75;8.48;;;13.60;1.00;;;;;;5014743;28;20508;-77
2023/10/09 01:41:19;;;;;;;21.65;8.60;;;13.50;1.00;;;;;;5031120;28;20037;-78
2023/10/09 01:43:45;;;;;;;23.60;9.73;;;13.50;1.00;;;;;;5045083;28;20041;-77
2023/10/09 01:46:19;;;;;;;23.73;9.38;;;13.50;1.00;;;;;;5032018;28;20523;-77
2023/10/09 01:48:46;;;;;;;21.75;8.75;;;13.50;1.00;;;;;;5023076;28;20088;-77
2023/10/09 01:51:17;;;;;;;22.55;9.93;;;13.50;1.00;;;;;;5032837;28;20033;-77
2023/10/09 01:53:47;;;;;;;22.02;9.25;;;13.50;1.00;;;;;;5044045;28;20163;-77
2023/10/09 01:56:16;;;;;;;25.95;9.18;;;13.50;1.00;;;;;;5028070;28;20041;-77
2023/10/09 01:58:46;;;;;;;22.05;9.77;;;13.50;1.00;;;;;;5032615;28;20086;-78
2023/10/09 02:01:12;;;;;;;25.52;10.30;;;13.50;1.00;;;;;;5020590;28;20347;-78
2023/10/09 02:03:38;;;;;;;26.05;9.77;;;13.50;1.00;;;;;;5033440;28;20120;-78
2023/10/09 02:06:17;;;;;;;19.52;9.60;;;13.40;1.00;;;;;;5051377;28;20037;-77
2023/10/09 02:08:49;;;;;;;19.90;9.60;;;13.50;1.00;;;;;;5029703;28;20041;-78
2023/10/09 02:11:24;;;;;;;19.67;8.98;;;13.50;1.00;;;;;;5030055;28;20040;-77
2023/10/09 02:14:01;;;;;;;22.77;10.10;;;13.50;1.00;;;;;;5044177;28;20037;-77
2023/10/09 02:16:32;;;;;;;25.60;10.40;;;13.50;1.00;;;;;;5043161;28;20128;-77
2023/10/09 02:18:59;;;;;;;21.77;9.75;;;13.50;1.00;;;;;;5037960;28;20213;-78
2023/10/09 02:21:34;;;;;;;20.83;9.65;;;13.50;1.00;;;;;;5047306;28;20041;-77
2023/10/09 02:24:26;;;;;;;23.03;10.97;;;13.50;1.00;;;;;;5032010;28;20036;-78
2023/10/09 02:29:17;;;;;;;23.10;9.98;;;13.60;1.00;;;;;;5042097;28;20076;-78
2023/10/09 02:31:46;;;;;;;24.08;10.93;;;13.60;1.00;;;;;;5036557;28;20155;-77
2023/10/09 02:34:12;;;;;;;20.88;9.88;;;13.60;1.00;;;;;;5027413;28;20083;-77
2023/10/09 02:36:41;;;;;;;23.45;10.13;;;13.60;1.00;;;;;;5038913;28;20043;-77
2023/10/09 02:42:06;;;;;;;22.05;10.77;;;13.60;1.00;;;;;;5041321;28;20051;-77
2023/10/09 02:44:40;;;;;;;23.63;10.80;;;13.60;1.00;;;;;;5031197;28;20041;-77
2023/10/09 02:47:11;;;;;;;27.92;11.07;;;13.60;1.00;;;;;;5045888;28;20410;-77
2023/10/09 02:49:40;;;;;;;26.42;12.10;;;13.60;1.00;;;;;;5044523;28;20083;-77
2023/10/09 02:52:07;;;;;;;25.83;11.63;;;13.50;1.00;;;;;;5030861;28;20052;-77
2023/10/09 02:54:41;;;;;;;29.90;11.75;;;13.50;1.00;;;;;;5045380;28;20579;-77
2023/10/09 02:57:07;;;;;;;24.65;11.80;;;13.50;1.00;;;;;;5037822;28;20041;-77
2023/10/09 02:59:44;;;;;;;34.30;13.18;;;13.50;1.00;;;;;;5041496;28;20116;-77
2023/10/09 03:02:10;;;;;;;27.52;12.18;;;13.50;1.00;;;;;;5029678;28;20711;-77
2023/10/09 03:04:38;;;;;;;26.42;12.02;;;13.40;1.00;;;;;;5035193;28;20049;-76
2023/10/09 03:07:04;;;;;;;30.27;11.93;;;13.50;1.00;;;;;;5022913;28;20033;-77
2023/10/09 03:09:31;;;;;;;30.15;12.60;;;13.40;1.00;;;;;;5042916;28;20044;-78
2023/10/09 03:12:02;;;;;;;33.88;12.63;;;13.40;1.00;;;;;;5025578;28;20042;-78
2023/10/09 03:14:30;;;;;;;30.35;12.80;;;13.50;1.00;;;;;;5027233;28;20043;-77
2023/10/09 03:16:56;;;;;;;35.25;14.43;;;13.40;2.60;;;;;;5040401;28;20033;-77
2023/10/09 03:19:25;;;;;;;28.15;12.40;;;13.50;5.20;;;;;;5042641;28;20045;-77
2023/10/09 03:21:50;;;;;;;30.80;13.10;;;13.50;10.40;;;;;;5028598;28;20036;-77
2023/10/09 03:24:16;;;;;;;31.23;13.15;;;13.50;18.90;;;;;;5045664;28;20098;-77
2023/10/09 03:26:45;;;;;;;30.17;14.00;;;13.60;23.50;;;;;;5029337;28;20036;-77
2023/10/09 03:29:11;;;;;;;34.65;14.55;;;13.60;24.50;;;;;;5029607;28;20950;-77
2023/10/09 03:31:37;;;;;;;34.15;14.52;;;13.50;42.60;;;;;;5045572;28;20029;-77
2023/10/09 03:34:04;;;;;;;32.58;14.38;;;13.60;52.40;;;;;;5041573;28;20521;-77
2023/10/09 03:36:30;;;;;;;37.92;14.68;;;13.70;53.20;;;;;;5053231;28;20044;-77
2023/10/09 03:38:57;;;;;;;36.83;14.85;;;13.70;49.50;;;;;;5020637;28;20041;-77
2023/10/09 03:41:26;;;;;;;33.25;14.82;;;13.80;74.90;;;;;;5054958;28;20045;-77
2023/10/09 03:43:54;;;;;;;29.48;13.45;;;13.80;68.30;;;;;;5039165;28;20049;-77
2023/10/09 03:46:22;;;;;;;35.15;15.48;;;13.90;77.10;;;;;;5021941;28;20040;-78
2023/10/09 03:48:48;;;;;;;36.13;15.38;;;13.90;82.80;;;;;;5039828;28;20056;-77
2023/10/09 03:51:26;;;;;;;30.73;14.65;;;13.90;77.00;;;;;;5049238;28;20034;-77
2023/10/09 03:53:54;;;;;;;38.13;15.90;;;14.00;82.30;;;;;;5049971;28;20080;-77
2023/10/09 03:56:23;;;;;;;36.50;16.15;;;14.00;97.60;;;;;;5027789;28;20045;-77
2023/10/09 03:58:53;;;;;;;39.10;16.65;;;14.10;99.90;;;;;;5033096;28;20106;-77
2023/10/09 04:01:27;;;;;;;33.20;15.23;;;14.20;98.80;;;;;;5038785;28;20060;-77
2023/10/09 04:03:59;;;;;;;38.85;16.00;;;14.30;98.50;;;;;;5044496;28;20099;-77
2023/10/09 04:06:33;;;;;;;35.13;15.55;;;14.30;97.90;;;;;;5026284;28;20033;-77
2023/10/09 04:09:00;;;;;;;43.45;16.33;;;14.30;93.50;;;;;;5017066;28;20037;-78
2023/10/09 04:11:26;;;;;;;36.85;16.80;;;14.40;90.10;;;;;;5043320;28;20521;-77
2023/10/09 04:13:52;;;;;;;32.97;15.88;;;14.40;90.10;;;;;;5023069;28;20037;-78
2023/10/09 04:18:57;;;;;;;39.70;16.73;;;14.40;93.80;;;;;;5034319;28;20437;-78
2023/10/09 04:21:44;;;;;;;36.30;17.58;;;14.40;94.30;;;;;;5033237;28;20037;-77
2023/10/09 04:26:44;;;;;;;38.78;16.83;;;14.40;99.90;;;;;;5042371;28;19936;-78
2023/10/09 04:29:18;;;;;;;38.97;16.17;;;14.40;99.60;;;;;;5025734;28;20120;-78
2023/10/09 04:31:51;;;;;;;37.88;16.20;;;14.40;97.50;;;;;;5024050;28;20082;-78
2023/10/09 04:34:37;;;;;;;38.80;16.33;;;14.40;95.80;;;;;;5046969;28;20047;-77
2023/10/09 04:39:48;;;;;;;35.95;15.75;;;14.40;97.30;;;;;;5048163;28;20044;-78
2023/10/09 04:42:58;;;;;;;40.80;16.80;;;14.40;99.90;;;;;;5038261;28;20048;-78
2023/10/09 04:47:49;;;;;;;38.13;17.20;;;14.40;99.90;;;;;;5042587;28;20045;-78
2023/10/09 04:58:00;;;;;;;37.05;17.00;;;14.50;99.90;;;;;;5038267;28;20049;-77
2023/10/09 05:02:58;;;;;;;40.55;17.30;;;14.50;99.90;;;;;;5053417;28;20129;-77
2023/10/09 05:08:28;;;;;;;39.55;17.70;;;14.50;99.90;;;;;;5046044;28;20045;-78
2023/10/09 05:13:42;;;;;;;35.70;16.50;;;14.60;99.90;;;;;;5052217;28;20052;-79
2023/10/09 05:16:28;;;;;;;41.20;15.98;;;14.60;99.90;;;;;;5042307;28;20040;-78
2023/10/09 05:19:08;;;;;;;44.38;17.90;;;14.60;99.90;;;;;;5028099;28;20422;-78
2023/10/09 05:21:36;;;;;;;38.00;15.85;;;14.60;99.90;;;;;;5038325;28;20606;-78
2023/10/09 05:29:19;;;;;;;37.45;16.80;;;14.60;99.90;;;;;;5046692;28;20060;-79
2023/10/09 05:37:32;;;;;;;32.85;15.45;;;14.70;99.90;;;;;;5059371;28;20506;-78
2023/10/09 05:42:42;;;;;;;32.08;14.88;;;14.90;99.90;;;;;;5042054;28;20042;-78
2023/10/09 05:50:38;;;;;;;33.60;13.60;;;15.00;99.90;;;;;;5010550;28;20037;-79
2023/10/09 05:56:59;;;;;;;30.98;15.02;;;15.00;99.90;;;;;;5049297;28;20136;-78
2023/10/09 06:03:53;;;;;;;27.98;13.90;;;15.10;99.90;;;;;;5038664;28;20052;-79
2023/10/09 06:11:54;;;;;;;26.80;12.88;;;15.20;99.90;;;;;;5054630;28;20041;-80
2023/10/09 06:14:25;;;;;;;29.92;11.80;;;15.10;99.90;;;;;;5043000;28;20045;-79
2023/10/09 06:17:22;;;;;;;26.60;11.88;;;15.20;99.90;;;;;;5039435;28;20120;-79
2023/10/09 06:19:48;;;;;;;23.33;10.43;;;15.20;99.90;;;;;;5055892;28;20141;-79
2023/10/09 06:25:08;;;;;;;30.58;11.63;;;15.20;99.90;;;;;;5042570;28;20084;-79
2023/10/09 06:32:40;;;;;;;19.23;10.15;;;15.30;99.90;;;;;;5045149;28;20070;-79
2023/10/09 06:35:15;;;;;;;19.45;10.10;;;15.30;99.90;;;;;;5025881;28;20255;-79
2023/10/09 06:46:43;;;;;;;18.33;8.98;;;15.40;99.90;;;;;;5035253;28;20037;-80
2023/10/09 06:48:56;;;;;;;17.23;8.68;;;15.40;99.90;;;;;;5029723;28;20560;-80
2023/10/09 06:59:04;;;;;;;16.50;8.35;;;15.50;99.90;;;;;;5028349;28;20103;-80
2023/10/09 07:01:42;;;;;;;17.20;7.28;;;15.50;99.90;;;;;;5044295;28;20048;-79
2023/10/09 07:06:56;;;;;;;14.73;7.97;;;15.50;99.90;;;;;;5041650;28;20120;-80
2023/10/09 07:09:22;;;;;;;19.90;6.90;;;15.60;99.90;;;;;;5028518;28;20039;-79
2023/10/09 07:22:39;;;;;;;17.83;7.45;;;15.60;99.90;;;;;;5054768;28;20511;-80
2023/10/09 07:25:27;;;;;;;21.48;7.00;;;15.60;99.90;;;;;;5054206;28;20136;-79
2023/10/09 07:27:55;;;;;;;15.65;6.32;;;15.70;99.90;;;;;;5030297;28;20059;-80
2023/10/09 07:38:20;;;;;;;17.50;7.07;;;15.70;99.90;;;;;;5037266;28;20052;-80
2023/10/09 07:43:39;;;;;;;17.30;6.82;;;15.60;99.90;;;;;;5043120;28;20041;-80
2023/10/09 07:48:53;;;;;;;14.20;6.38;;;15.70;99.90;;;;;;5042082;28;20044;-79
2023/10/09 07:51:23;;;;;;;15.48;6.13;;;15.80;99.90;;;;;;5055570;28;20043;-80
2023/10/09 07:54:06;;;;;;;12.30;6.65;;;15.70;99.90;;;;;;5051854;28;20053;-79
2023/10/09 07:56:45;;;;;;;18.52;7.28;;;15.80;99.90;;;;;;5034712;28;20045;-79
2023/10/09 07:59:17;;;;;;;18.38;6.95;;;15.80;99.90;;;;;;5029194;28;20036;-79
2023/10/09 08:01:59;;;;;;;15.10;6.57;;;15.80;99.90;;;;;;5044216;28;20479;-79
2023/10/09 08:07:34;;;;;;;17.27;6.03;;;15.90;99.90;;;;;;5011659;28;20094;-79
2023/10/09 08:15:20;;;;;;;19.48;7.05;;;16.10;99.90;;;;;;5035241;28;20453;-79
2023/10/09 08:18:13;;;;;;;19.55;6.25;;;16.10;99.90;;;;;;5049217;28;20036;-79
2023/10/09 08:21:19;;;;;;;13.60;6.43;;;16.10;99.90;;;;;;5053789;28;20041;-79
2023/10/09 08:23:49;;;;;;;20.48;6.63;;;16.10;99.90;;;;;;5046115;28;20562;-79
2023/10/09 08:26:47;;;;;;;14.50;5.78;;;16.10;99.90;;;;;;5034936;28;20045;-80
2023/10/09 08:29:19;;;;;;;21.63;6.85;;;16.20;99.90;;;;;;5041365;28;20036;-79
2023/10/09 08:31:45;;;;;;;13.15;5.85;;;16.20;99.90;;;;;;5031933;28;20418;-79
2023/10/09 08:34:26;;;;;;;19.70;7.18;;;16.30;99.90;;;;;;5038157;28;20037;-79
2023/10/09 08:36:52;;;;;;;18.38;6.50;;;16.30;99.90;;;;;;5026916;28;20069;-79
2023/10/09 08:39:26;;;;;;;18.80;7.65;;;16.30;99.90;;;;;;5042606;28;20068;-79
2023/10/09 08:41:53;;;;;;;18.40;6.63;;;16.20;99.90;;;;;;5028803;28;20041;-79
2023/10/09 08:44:25;;;;;;;17.25;6.78;;;16.20;99.90;;;;;;5042134;28;20049;-80
2023/10/09 08:46:51;;;;;;;12.48;6.53;;;16.10;99.90;;;;;;5041497;28;20047;-79
2023/10/09 08:49:21;;;;;;;19.48;6.70;;;16.10;99.90;;;;;;5057739;28;20041;-80
2023/10/09 08:51:48;;;;;;;18.10;6.97;;;16.10;99.90;;;;;;5028828;28;20036;-79
2023/10/09 08:54:14;;;;;;;17.42;6.00;;;16.10;99.90;;;;;;5028385;28;20049;-80
2023/10/09 08:56:49;;;;;;;16.02;6.80;;;16.00;99.90;;;;;;5042371;28;20132;-81
2023/10/09 08:59:19;;;;;;;18.45;6.70;;;16.00;99.90;;;;;;5026627;28;20045;-82
2023/10/09 09:01:49;;;;;;;18.35;7.40;;;16.10;99.90;;;;;;5040869;28;20040;-81
2023/10/09 09:04:40;;;;;;;20.48;7.80;;;16.00;99.90;;;;;;5037478;28;20045;-82
2023/10/09 09:07:22;;;;;;;13.32;7.05;;;16.00;99.90;;;;;;5029075;28;20029;-80
2023/10/09 09:10:04;;;;;;;13.73;6.22;;;15.90;99.90;;;;;;5024373;28;20036;-80
2023/10/09 09:12:37;;;;;;;20.35;6.30;;;16.10;99.90;;;;;;5024475;28;20034;-80
2023/10/09 09:15:04;;;;;;;13.55;5.75;;;16.00;99.90;;;;;;5027388;28;20047;-79
2023/10/09 09:17:33;;;;;;;15.82;6.50;;;16.00;99.90;;;;;;5026576;28;20411;-80
2023/10/09 09:19:59;;;;;;;16.55;6.30;;;16.00;99.90;;;;;;5020324;28;20047;-79
2023/10/09 09:22:26;;;;;;;13.65;5.72;;;16.00;99.90;;;;;;5028329;28;20651;-79
2023/10/09 09:25:09;;;;;;;15.40;6.00;;;16.10;99.90;;;;;;5027143;28;20041;-80
2023/10/09 09:27:54;;;;;;;14.52;6.72;;;16.20;99.90;;;;;;5037757;28;20552;-78
2023/10/09 09:30:35;;;;;;;16.47;6.27;;;16.20;99.90;;;;;;5030461;28;20045;-77
2023/10/09 09:33:20;;;;;;;19.02;6.38;;;16.10;99.90;;;;;;5014049;28;20511;-78
2023/10/09 09:35:57;;;;;;;19.90;6.70;;;16.20;99.90;;;;;;5022927;28;20140;-79
2023/10/09 09:38:25;;;;;;;15.93;6.10;;;16.30;99.90;;;;;;5016680;28;20051;-78
2023/10/09 09:40:54;;;;;;;17.30;6.43;;;16.20;99.90;;;;;;5041727;28;20127;-79
2023/10/09 09:43:22;;;;;;;14.40;6.22;;;16.30;99.90;;;;;;5019700;28;20045;-78
2023/10/09 09:45:53;;;;;;;21.38;6.38;;;16.30;99.90;;;;;;5026991;28;20064;-78
2023/10/09 09:48:18;;;;;;;16.85;6.78;;;16.30;99.90;;;;;;5038723;28;20132;-78
2023/10/09 09:50:45;;;;;;;19.92;7.13;;;16.40;99.90;;;;;;5007664;28;20041;-79
2023/10/09 09:53:18;;;;;;;18.13;7.38;;;16.40;99.90;;;;;;5042647;28;20433;-78
2023/10/09 09:55:57;;;;;;;18.70;7.07;;;16.50;99.90;;;;;;5038956;28;20052;-79
2023/10/09 09:58:26;;;;;;;19.27;7.13;;;16.50;99.90;;;;;;5032162;28;20099;-78
2023/10/09 10:01:01;;;;;;;18.42;7.15;;;16.60;99.90;;;;;;5028241;28;20044;-78
2023/10/09 10:03:32;;;;;;;16.70;7.37;;;16.60;99.90;;;;;;5039087;28;20041;-78
2023/10/09 10:06:04;;;;;;;15.60;7.13;;;16.50;99.90;;;;;;5023488;28;20045;-78
2023/10/09 10:08:32;;;;;;;19.33;6.43;;;16.60;99.90;;;;;;5027134;28;20083;-78
2023/10/09 10:11:04;;;;;;;16.33;6.63;;;16.70;99.90;;;;;;5027539;28;20075;-78
2023/10/09 10:13:42;;;;;;;16.55;6.38;;;16.80;99.90;;;;;;5042909;28;20045;-79
2023/10/09 10:18:59;;;;;;;21.92;7.07;;;16.80;99.90;;;;;;5065720;28;20044;-80
2023/10/09 10:21:37;;;;;;;16.33;7.50;;;16.80;99.90;;;;;;5042819;28;20120;-79
2023/10/09 10:24:06;;;;;;;20.23;7.28;;;16.90;99.90;;;;;;5040738;28;20747;-80
2023/10/09 10:26:38;;;;;;;16.45;7.53;;;16.90;99.90;;;;;;5045519;28;20606;-80
2023/10/09 10:29:26;;;;;;;18.67;7.75;;;16.90;99.90;;;;;;5030983;28;20585;-80
2023/10/09 10:32:06;;;;;;;15.68;6.40;;;16.90;99.90;;;;;;5048797;28;20095;-80
2023/10/09 10:34:56;;;;;;;14.75;7.07;;;16.80;99.90;;;;;;5030403;28;20127;-80
2023/10/09 10:37:44;;;;;;;19.20;7.38;;;16.80;99.90;;;;;;5040426;28;20434;-78
2023/10/09 10:40:37;;;;;;;15.15;6.80;;;16.80;99.90;;;;;;5043317;28;20069;-77
2023/10/09 10:43:13;;;;;;;15.93;6.10;;;16.70;99.90;;;;;;5035136;28;20045;-79
2023/10/09 10:45:45;;;;;;;16.90;6.60;;;16.70;99.90;;;;;;5045942;28;20072;-78
2023/10/09 10:48:37;;;;;;;19.10;6.88;;;16.60;99.90;;;;;;5027310;28;20053;-79
2023/10/09 10:51:03;;;;;;;15.70;6.30;;;16.60;99.90;;;;;;5043079;28;20033;-78
2023/10/09 10:53:47;;;;;;;17.38;6.85;;;16.60;99.90;;;;;;5025230;28;20069;-78
2023/10/09 10:59:11;;;;;;;15.75;6.70;;;16.60;99.90;;;;;;5038766;28;20049;-78
2023/10/09 11:07:24;;;;;;;18.52;6.10;;;16.60;99.90;;;;;;5037039;28;20041;-80
2023/10/09 11:12:39;;;;;;;17.98;7.05;;;16.60;99.90;;;;;;5041354;28;20554;-78
2023/10/09 11:15:37;;;;;;;19.98;6.88;;;16.50;99.90;;;;;;5035208;28;20041;-79
2023/10/09 11:18:07;;;;;;;14.90;7.03;;;16.60;99.90;;;;;;5040466;28;20045;-79
2023/10/09 11:20:38;;;;;;;17.95;6.10;;;16.60;99.90;;;;;;5021568;28;20040;-78
2023/10/09 11:23:14;;;;;;;14.35;5.75;;;16.60;99.90;;;;;;5028890;28;20045;-79
2023/10/09 11:26:07;;;;;;;18.27;6.30;;;16.60;99.90;;;;;;5041602;28;20087;-79
2023/10/09 11:28:48;;;;;;;20.35;6.65;;;16.60;99.90;;;;;;5027717;28;20550;-78
2023/10/09 11:31:18;;;;;;;19.55;7.07;;;16.60;99.90;;;;;;5019823;28;20033;-78
2023/10/09 11:33:51;;;;;;;14.93;6.25;;;16.60;99.90;;;;;;5029354;28;20040;-76
2023/10/09 11:36:31;;;;;;;16.92;5.90;;;16.70;99.90;;;;;;5040471;28;20499;-76
2023/10/09 11:39:14;;;;;;;19.42;7.28;;;16.70;99.90;;;;;;5041213;28;20036;-76
2023/10/09 11:41:44;;;;;;;20.80;6.60;;;16.70;99.90;;;;;;5028567;28;20094;-75
2023/10/09 11:44:19;;;;;;;16.63;6.53;;;16.70;99.90;;;;;;5025110;28;20037;-75
2023/10/09 11:46:58;;;;;;;14.70;6.28;;;16.60;99.90;;;;;;5038128;28;20054;-76
2023/10/09 11:49:34;;;;;;;14.80;5.95;;;16.70;99.90;;;;;;5036281;28;20045;-76
2023/10/09 11:54:35;;;;;;;11.32;5.90;;;16.60;99.90;;;;;;5039265;28;20681;-76
2023/10/09 11:57:04;;;;;;;18.92;5.97;;;16.60;99.90;;;;;;5050404;28;20029;-76
2023/10/09 11:59:37;;;;;;;14.80;5.85;;;16.60;99.90;;;;;;5038239;28;20044;-76
2023/10/09 12:02:04;;;;;;;19.05;6.88;;;16.70;99.90;;;;;;5016500;28;20041;-76
2023/10/09 12:04:30;;;;;;;17.08;5.38;;;16.70;99.90;;;;;;5024123;28;20033;-76
2023/10/09 12:07:07;;;;;;;19.58;6.05;;;16.70;99.90;;;;;;5022956;28;20033;-76
2023/10/09 12:09:37;;;;;;;14.55;5.53;;;16.70;99.90;;;;;;5037859;28;20063;-76
2023/10/09 12:12:04;;;;;;;17.95;6.65;;;16.80;99.90;;;;;;5045381;28;20075;-76
2023/10/09 12:14:37;;;;;;;16.60;5.30;;;16.90;99.90;;;;;;5022824;28;20044;-76
2023/10/09 12:17:08;;;;;;;11.75;4.90;;;17.10;99.90;;;;;;5023375;28;20049;-75
2023/10/09 12:19:35;;;;;;;11.18;4.55;;;17.40;99.90;;;;;;5031601;28;20735;-76
2023/10/09 12:22:03;;;;;;;12.55;4.88;;;17.50;99.90;;;;;;5020141;28;20139;-76
2023/10/09 12:24:30;;;;;;;11.07;5.10;;;17.40;99.90;;;;;;5027323;28;20495;-76
2023/10/09 12:26:56;;;;;;;9.90;3.90;;;17.40;99.90;;;;;;5041528;28;20037;-75
2023/10/09 12:29:22;;;;;;;14.85;4.70;;;17.40;99.90;;;;;;5035613;28;20492;-76
2023/10/09 12:31:47;;;;;;;9.50;4.25;;;17.60;99.90;;;;;;5023287;28;20311;-76
2023/10/09 12:34:16;;;;;;;12.10;4.30;;;17.70;99.90;;;;;;5039114;28;20149;-76
2023/10/09 12:36:45;;;;;;;12.85;3.95;;;17.70;99.90;;;;;;5023663;28;20381;-76
2023/10/09 12:39:17;;;;;;;7.38;3.45;;;17.60;99.90;;;;;;5021613;28;20040;-77
2023/10/09 12:41:44;;;;;;;7.97;3.13;;;17.50;99.90;;;;;;5034716;28;20051;-77
2023/10/09 12:44:19;;;;;;;6.35;3.17;;;17.50;99.90;;;;;;5042232;28;20090;-77
2023/10/09 12:46:52;;;;;;;10.90;3.58;;;17.40;99.90;;;;;;5017247;28;20037;-76
2023/10/09 12:49:27;;;;;;;7.45;2.90;;;17.40;99.90;;;;;;5044228;28;20098;-76
2023/10/09 12:51:54;;;;;;;10.23;3.33;;;17.40;99.90;;;;;;5027041;28;20503;-77
2023/10/09 12:54:20;;;;;;;9.15;3.15;;;17.40;99.90;;;;;;5045354;28;20041;-77
2023/10/09 12:56:49;;;;;;;10.75;3.25;;;17.60;99.90;;;;;;5045594;28;20123;-76
2023/10/09 12:59:14;;;;;;;8.60;3.20;;;17.90;99.90;;;;;;5061978;28;20045;-76
2023/10/09 13:01:43;;;;;;;6.32;2.65;;;18.30;99.90;;;;;;5042162;28;20052;-77
2023/10/09 13:04:15;;;;;;;7.93;4.53;;;18.50;99.90;;;;;;5044012;28;20037;-76
2023/10/09 13:06:44;;;;;;;8.10;3.80;;;18.60;99.90;;;;;;5042817;28;20614;-76
2023/10/09 13:09:15;;;;;;;10.30;2.67;;;18.60;99.90;;;;;;5043799;28;20033;-77
2023/10/09 13:11:42;;;;;;;13.00;6.90;;;18.40;99.90;;;;;;5028433;28;20036;-77
2023/10/09 13:14:16;;;;;;;9.90;3.50;;;18.50;99.90;;;;;;5038612;28;20060;-78
2023/10/09 13:16:43;;;;;;;10.90;4.70;;;18.40;99.90;;;;;;5020104;28;20120;-77
2023/10/09 13:19:12;;;;;;;6.57;2.17;;;18.30;99.90;;;;;;5045591;28;20048;-78
2023/10/09 13:21:40;;;;;;;6.80;2.35;;;18.20;99.90;;;;;;5041628;28;20087;-77
2023/10/09 13:24:13;;;;;;;6.65;2.92;;;18.20;99.90;;;;;;5020059;28;20041;-77
2023/10/09 13:26:40;;;;;;;4.80;2.40;;;18.30;99.90;;;;;;5027380;28;20025;-77
2023/10/09 13:29:09;;;;;;;6.95;2.97;;;18.40;99.90;;;;;;5031623;28;20072;-77
2023/10/09 13:31:46;;;;;;;7.47;3.08;;;18.30;99.90;;;;;;5050763;28;20619;-77
2023/10/09 13:34:14;;;;;;;7.05;3.25;;;18.20;99.90;;;;;;5037083;28;20057;-77
2023/10/09 13:36:49;;;;;;;11.63;6.18;;;18.30;99.90;;;;;;5017898;28;20049;-77
2023/10/09 13:39:25;;;;;;;11.23;5.20;;;18.40;99.90;;;;;;5036620;28;20073;-77
2023/10/09 13:42:10;;;;;;;6.55;2.58;;;18.40;99.90;;;;;;5026502;28;20086;-77
2023/10/09 13:44:37;;;;;;;5.32;2.30;;;18.30;99.90;;;;;;5032787;28;20399;-77
2023/10/09 13:47:05;;;;;;;6.18;2.40;;;18.20;99.90;;;;;;5030317;28;20033;-78
2023/10/09 13:49:32;;;;;;;5.13;2.60;;;18.20;99.90;;;;;;5046961;28;20087;-77
2023/10/09 13:51:59;;;;;;;4.88;2.00;;;18.10;99.90;;;;;;5061882;28;20051;-76
2023/10/09 13:54:39;;;;;;;5.47;2.20;;;18.00;99.90;;;;;;5057243;28;20041;-77
2023/10/09 13:57:06;;;;;;;4.53;2.70;;;17.80;99.90;;;;;;5041029;28;20041;-76
2023/10/09 13:59:36;;;;;;;5.05;2.53;;;17.80;99.90;;;;;;5026109;28;20049;-77
2023/10/09 14:02:08;;;;;;;5.05;2.28;;;17.80;99.90;;;;;;5030736;28;20155;-77
2023/10/09 14:04:34;;;;;;;4.22;1.80;;;17.70;99.90;;;;;;5041950;28;20442;-76
2023/10/09 14:07:01;;;;;;;5.32;1.92;;;17.70;99.90;;;;;;5030146;28;20036;-77
2023/10/09 14:09:30;;;;;;;6.43;1.88;;;17.70;99.90;;;;;;5046511;28;20128;-77
2023/10/09 14:12:06;;;;;;;4.78;1.95;;;17.80;99.90;;;;;;5031253;28;20047;-76
2023/10/09 14:14:49;;;;;;;4.28;1.67;;;17.70;99.90;;;;;;5048486;28;20052;-77
2023/10/09 14:17:23;;;;;;;4.93;1.70;;;17.60;99.90;;;;;;5027280;28;20511;-77
2023/10/09 14:19:51;;;;;;;3.67;1.52;;;17.60;99.90;;;;;;5030212;28;20049;-77
2023/10/09 14:22:24;;;;;;;6.53;2.60;;;17.50;99.90;;;;;;5030136;28;20380;-77
2023/10/09 14:24:56;;;;;;;7.22;2.35;;;17.50;99.90;;;;;;5031719;28;20047;-77
2023/10/09 14:27:29;;;;;;;4.43;2.08;;;17.50;99.90;;;;;;5057328;28;20099;-77
2023/10/09 14:29:56;;;;;;;8.27;1.95;;;17.40;99.90;;;;;;5031772;28;20033;-77
2023/10/09 14:32:33;;;;;;;5.60;2.00;;;17.30;99.90;;;;;;5035094;28;20438;-77
2023/10/09 14:35:02;;;;;;;8.45;2.55;;;17.30;99.90;;;;;;5031905;28;20373;-77
2023/10/09 14:37:28;;;;;;;8.27;1.77;;;17.20;99.90;;;;;;5045779;28;20060;-77
2023/10/09 14:39:55;;;;;;;6.25;2.13;;;17.30;99.90;;;;;;5048331;28;20052;-77
2023/10/09 14:42:23;;;;;;;3.17;1.95;;;17.30;99.90;;;;;;5029181;28;20052;-78
2023/10/09 14:44:50;;;;;;;6.55;2.92;;;17.30;99.90;;;;;;5041045;28;20410;-78
2023/10/09 14:47:16;;;;;;;7.13;2.50;;;17.20;99.90;;;;;;5024963;28;21141;-77
2023/10/09 14:49:46;;;;;;;5.35;2.30;;;17.20;99.90;;;;;;5025129;28;20064;-76
2023/10/09 14:52:16;;;;;;;6.78;2.10;;;17.30;99.90;;;;;;5030659;28;20099;-77
2023/10/09 14:54:45;;;;;;;5.82;1.73;;;17.20;99.90;;;;;;5047915;28;20633;-76
2023/10/09 14:57:12;;;;;;;6.32;2.10;;;17.20;99.90;;;;;;5027409;28;20431;-77
2023/10/09 14:59:39;;;;;;;7.68;2.22;;;17.20;99.90;;;;;;5027994;28;20549;-77
2023/10/09 15:02:05;;;;;;;7.15;1.77;;;17.30;99.90;;;;;;5045322;28;20037;-76
2023/10/09 15:04:35;;;;;;;6.03;2.30;;;17.30;99.90;;;;;;5018923;28;20557;-77
2023/10/09 15:07:01;;;;;;;5.15;1.92;;;17.20;99.90;;;;;;5048720;28;20099;-77
2023/10/09 15:09:31;;;;;;;6.82;1.98;;;17.20;99.90;;;;;;5045844;28;20053;-77
2023/10/09 15:11:57;;;;;;;6.30;2.65;;;17.10;99.90;;;;;;5028858;28;20041;-77
2023/10/09 15:14:23;;;;;;;6.32;1.98;;;17.10;99.90;;;;;;5027427;28;20633;-77
2023/10/09 15:16:50;;;;;;;5.00;2.08;;;17.10;99.90;;;;;;5045339;28;20058;-77
2023/10/09 15:19:16;;;;;;;21.40;2.55;;;17.00;99.90;;;;;;5044502;28;20531;-77
2023/10/09 15:21:46;;;;;;;9.40;3.65;;;17.00;99.90;;;;;;5043075;28;20052;-76
2023/10/09 15:24:16;;;;;;;8.95;4.72;;;17.00;99.90;;;;;;5027977;28;20602;-77
2023/10/09 15:26:57;;;;;;;6.28;2.17;;;17.00;99.90;;;;;;5044722;28;20036;-77
2023/10/09 15:29:28;;;;;;;8.15;3.17;;;17.00;99.90;;;;;;5044501;28;20037;-77
2023/10/09 15:32:04;;;;;;;4.38;1.83;;;17.00;99.90;;;;;;5041135;28;20391;-77